sensor_id;sensor_type;location;lat;lon;timestamp;P1;durP1;ratioP1;P2;durP2;ratioP2
982;SDS011;480;48.124;11.578;2022-11-15T00:02:26;4.17;;;3.87;;
982;SDS011;480;48.124;11.578;2022-11-15T00:04:53;3.50;;;3.20;;
982;SDS011;480;48.124;11.578;2022-11-15T00:07:20;3.13;;;2.83;;
982;SDS011;480;48.124;11.578;2022-11-15T00:09:49;4.60;;;3.47;;
982;SDS011;480;48.124;11.578;2022-11-15T00:12:16;4.63;;;4.23;;
982;SDS011;480;48.124;11.578;2022-11-15T00:14:42;4.93;;;4.43;;
982;SDS011;480;48.124;11.578;2022-11-15T00:17:10;3.90;;;3.60;;
982;SDS011;480;48.124;11.578;2022-11-15T00:19:36;5.03;;;4.10;;
982;SDS011;480;48.124;11.578;2022-11-15T00:22:03;5.00;;;4.43;;
982;SDS011;480;48.124;11.578;2022-11-15T00:24:31;3.63;;;3.33;;
982;SDS011;480;48.124;11.578;2022-11-15T00:26:59;5.00;;;4.60;;
982;SDS011;480;48.124;11.578;2022-11-15T00:29:26;4.80;;;3.30;;
982;SDS011;480;48.124;11.578;2022-11-15T00:31:53;4.33;;;3.80;;
982;SDS011;480;48.124;11.578;2022-11-15T00:34:21;2.97;;;2.67;;
982;SDS011;480;48.124;11.578;2022-11-15T00:36:48;5.43;;;4.47;;
982;SDS011;480;48.124;11.578;2022-11-15T00:39:15;5.40;;;4.00;;
982;SDS011;480;48.124;11.578;2022-11-15T00:41:42;6.80;;;3.90;;
982;SDS011;480;48.124;11.578;2022-11-15T00:44:10;4.23;;;3.83;;
982;SDS011;480;48.124;11.578;2022-11-15T00:46:37;4.27;;;3.80;;
982;SDS011;480;48.124;11.578;2022-11-15T00:49:05;4.03;;;3.33;;
982;SDS011;480;48.124;11.578;2022-11-15T00:51:32;4.87;;;3.57;;
982;SDS011;480;48.124;11.578;2022-11-15T00:53:59;4.87;;;3.80;;
982;SDS011;480;48.124;11.578;2022-11-15T00:56:26;3.70;;;3.40;;
982;SDS011;480;48.124;11.578;2022-11-15T00:58:53;3.83;;;3.07;;
982;SDS011;480;48.124;11.578;2022-11-15T01:01:21;4.87;;;3.87;;
982;SDS011;480;48.124;11.578;2022-11-15T01:03:48;3.33;;;3.07;;
982;SDS011;480;48.124;11.578;2022-11-15T01:06:15;3.50;;;3.10;;
982;SDS011;480;48.124;11.578;2022-11-15T01:08:42;3.10;;;2.80;;
982;SDS011;480;48.124;11.578;2022-11-15T01:11:10;3.77;;;3.47;;
982;SDS011;480;48.124;11.578;2022-11-15T01:13:38;4.23;;;3.00;;
982;SDS011;480;48.124;11.578;2022-11-15T01:16:06;3.17;;;2.80;;
982;SDS011;480;48.124;11.578;2022-11-15T01:18:36;4.07;;;3.00;;
982;SDS011;480;48.124;11.578;2022-11-15T01:21:07;4.87;;;3.73;;
982;SDS011;480;48.124;11.578;2022-11-15T01:23:34;5.73;;;3.80;;
982;SDS011;480;48.124;11.578;2022-11-15T01:26:02;3.30;;;3.07;;
982;SDS011;480;48.124;11.578;2022-11-15T01:28:31;3.60;;;2.93;;
982;SDS011;480;48.124;11.578;2022-11-15T01:30:58;6.90;;;3.63;;
982;SDS011;480;48.124;11.578;2022-11-15T01:33:26;3.70;;;2.87;;
982;SDS011;480;48.124;11.578;2022-11-15T01:35:54;3.37;;;2.57;;
982;SDS011;480;48.124;11.578;2022-11-15T01:38:22;2.90;;;2.70;;
982;SDS011;480;48.124;11.578;2022-11-15T01:40:49;2.80;;;2.60;;
982;SDS011;480;48.124;11.578;2022-11-15T01:43:19;2.97;;;2.77;;
982;SDS011;480;48.124;11.578;2022-11-15T01:45:49;3.33;;;3.13;;
982;SDS011;480;48.124;11.578;2022-11-15T01:48:19;3.40;;;2.67;;
982;SDS011;480;48.124;11.578;2022-11-15T01:50:47;4.47;;;2.87;;
982;SDS011;480;48.124;11.578;2022-11-15T01:53:17;3.00;;;2.80;;
982;SDS011;480;48.124;11.578;2022-11-15T01:55:47;3.27;;;2.33;;
982;SDS011;480;48.124;11.578;2022-11-15T01:58:14;2.50;;;2.30;;
982;SDS011;480;48.124;11.578;2022-11-15T02:00:41;2.60;;;2.13;;
982;SDS011;480;48.124;11.578;2022-11-15T02:03:08;5.57;;;3.97;;
982;SDS011;480;48.124;11.578;2022-11-15T02:05:35;2.77;;;2.37;;
982;SDS011;480;48.124;11.578;2022-11-15T02:08:03;3.80;;;3.00;;
982;SDS011;480;48.124;11.578;2022-11-15T02:10:32;3.53;;;2.40;;
982;SDS011;480;48.124;11.578;2022-11-15T02:12:59;3.70;;;2.70;;
982;SDS011;480;48.124;11.578;2022-11-15T02:15:29;2.20;;;2.10;;
982;SDS011;480;48.124;11.578;2022-11-15T02:18:15;2.90;;;1.90;;
982;SDS011;480;48.124;11.578;2022-11-15T02:20:50;2.13;;;1.93;;
982;SDS011;480;48.124;11.578;2022-11-15T02:26:44;2.63;;;2.43;;
982;SDS011;480;48.124;11.578;2022-11-15T02:29:42;2.03;;;1.80;;
982;SDS011;480;48.124;11.578;2022-11-15T02:32:30;2.77;;;2.53;;
982;SDS011;480;48.124;11.578;2022-11-15T02:35:06;2.47;;;2.20;;
982;SDS011;480;48.124;11.578;2022-11-15T02:37:43;2.37;;;1.90;;
982;SDS011;480;48.124;11.578;2022-11-15T02:40:21;4.43;;;2.73;;
982;SDS011;480;48.124;11.578;2022-11-15T02:42:54;2.57;;;2.00;;
982;SDS011;480;48.124;11.578;2022-11-15T02:45:45;3.53;;;2.90;;
982;SDS011;480;48.124;11.578;2022-11-15T02:48:17;2.60;;;2.40;;
982;SDS011;480;48.124;11.578;2022-11-15T02:50:47;2.07;;;1.97;;
982;SDS011;480;48.124;11.578;2022-11-15T02:53:14;3.10;;;2.17;;
982;SDS011;480;48.124;11.578;2022-11-15T02:55:43;2.20;;;2.00;;
982;SDS011;480;48.124;11.578;2022-11-15T02:58:19;3.07;;;2.20;;
982;SDS011;480;48.124;11.578;2022-11-15T03:01:12;3.03;;;2.20;;
982;SDS011;480;48.124;11.578;2022-11-15T03:03:54;1.90;;;1.80;;
982;SDS011;480;48.124;11.578;2022-11-15T03:06:31;2.80;;;2.60;;
982;SDS011;480;48.124;11.578;2022-11-15T03:09:04;2.10;;;2.00;;
982;SDS011;480;48.124;11.578;2022-11-15T03:11:36;2.57;;;2.37;;
982;SDS011;480;48.124;11.578;2022-11-15T03:14:10;2.60;;;2.07;;
982;SDS011;480;48.124;11.578;2022-11-15T03:16:47;3.27;;;2.97;;
982;SDS011;480;48.124;11.578;2022-11-15T03:19:22;2.50;;;2.30;;
982;SDS011;480;48.124;11.578;2022-11-15T03:21:56;2.90;;;2.50;;
982;SDS011;480;48.124;11.578;2022-11-15T03:24:26;2.50;;;2.30;;
982;SDS011;480;48.124;11.578;2022-11-15T03:26:55;2.63;;;2.10;;
982;SDS011;480;48.124;11.578;2022-11-15T03:29:26;3.23;;;2.20;;
982;SDS011;480;48.124;11.578;2022-11-15T03:31:56;2.10;;;1.90;;
982;SDS011;480;48.124;11.578;2022-11-15T03:34:31;2.37;;;1.90;;
982;SDS011;480;48.124;11.578;2022-11-15T03:37:01;5.87;;;1.80;;
982;SDS011;480;48.124;11.578;2022-11-15T03:39:28;2.30;;;1.67;;
982;SDS011;480;48.124;11.578;2022-11-15T03:41:57;2.90;;;1.90;;
982;SDS011;480;48.124;11.578;2022-11-15T03:44:35;3.10;;;2.43;;
982;SDS011;480;48.124;11.578;2022-11-15T03:47:08;2.70;;;2.40;;
982;SDS011;480;48.124;11.578;2022-11-15T03:49:40;2.60;;;2.13;;
982;SDS011;480;48.124;11.578;2022-11-15T03:52:11;2.43;;;1.90;;
982;SDS011;480;48.124;11.578;2022-11-15T03:54:47;2.30;;;2.10;;
982;SDS011;480;48.124;11.578;2022-11-15T03:57:15;1.77;;;1.63;;
982;SDS011;480;48.124;11.578;2022-11-15T03:59:42;2.67;;;2.47;;
982;SDS011;480;48.124;11.578;2022-11-15T04:02:12;1.83;;;1.73;;
982;SDS011;480;48.124;11.578;2022-11-15T04:04:41;3.40;;;2.40;;
982;SDS011;480;48.124;11.578;2022-11-15T04:07:08;2.80;;;2.60;;
982;SDS011;480;48.124;11.578;2022-11-15T04:09:35;2.00;;;1.90;;
982;SDS011;480;48.124;11.578;2022-11-15T04:12:23;2.70;;;2.50;;
982;SDS011;480;48.124;11.578;2022-11-15T04:14:57;2.03;;;1.90;;
982;SDS011;480;48.124;11.578;2022-11-15T04:17:37;3.07;;;2.30;;
982;SDS011;480;48.124;11.578;2022-11-15T04:20:08;2.37;;;2.07;;
982;SDS011;480;48.124;11.578;2022-11-15T04:22:55;3.23;;;2.50;;
982;SDS011;480;48.124;11.578;2022-11-15T04:25:40;3.03;;;1.80;;
982;SDS011;480;48.124;11.578;2022-11-15T04:28:08;2.20;;;1.93;;
982;SDS011;480;48.124;11.578;2022-11-15T04:30:36;1.83;;;1.73;;
982;SDS011;480;48.124;11.578;2022-11-15T04:33:03;3.40;;;2.10;;
982;SDS011;480;48.124;11.578;2022-11-15T04:35:31;3.10;;;1.70;;
982;SDS011;480;48.124;11.578;2022-11-15T04:37:59;2.83;;;1.83;;
982;SDS011;480;48.124;11.578;2022-11-15T04:40:25;1.90;;;1.70;;
982;SDS011;480;48.124;11.578;2022-11-15T04:42:52;2.37;;;2.27;;
982;SDS011;480;48.124;11.578;2022-11-15T04:45:19;3.00;;;1.57;;
982;SDS011;480;48.124;11.578;2022-11-15T04:47:48;2.00;;;1.80;;
982;SDS011;480;48.124;11.578;2022-11-15T04:50:15;3.00;;;2.13;;
982;SDS011;480;48.124;11.578;2022-11-15T04:52:53;2.20;;;2.00;;
982;SDS011;480;48.124;11.578;2022-11-15T04:55:20;2.33;;;2.10;;
982;SDS011;480;48.124;11.578;2022-11-15T04:57:48;2.23;;;2.10;;
982;SDS011;480;48.124;11.578;2022-11-15T05:00:23;2.80;;;2.60;;
982;SDS011;480;48.124;11.578;2022-11-15T05:02:50;2.47;;;2.33;;
982;SDS011;480;48.124;11.578;2022-11-15T05:05:37;2.30;;;2.20;;
982;SDS011;480;48.124;11.578;2022-11-15T05:08:06;2.17;;;1.97;;
982;SDS011;480;48.124;11.578;2022-11-15T05:10:33;2.87;;;1.87;;
982;SDS011;480;48.124;11.578;2022-11-15T05:13:00;2.20;;;2.00;;
982;SDS011;480;48.124;11.578;2022-11-15T05:15:27;2.10;;;1.90;;
982;SDS011;480;48.124;11.578;2022-11-15T05:17:57;1.93;;;1.83;;
982;SDS011;480;48.124;11.578;2022-11-15T05:20:24;2.97;;;2.60;;
982;SDS011;480;48.124;11.578;2022-11-15T05:22:52;1.70;;;1.60;;
982;SDS011;480;48.124;11.578;2022-11-15T05:25:21;2.60;;;1.80;;
982;SDS011;480;48.124;11.578;2022-11-15T05:27:49;2.30;;;1.73;;
982;SDS011;480;48.124;11.578;2022-11-15T05:30:16;1.60;;;1.50;;
982;SDS011;480;48.124;11.578;2022-11-15T05:32:43;1.43;;;1.30;;
982;SDS011;480;48.124;11.578;2022-11-15T05:35:12;1.80;;;1.70;;
982;SDS011;480;48.124;11.578;2022-11-15T05:37:44;3.13;;;2.17;;
982;SDS011;480;48.124;11.578;2022-11-15T05:40:11;2.13;;;1.77;;
982;SDS011;480;48.124;11.578;2022-11-15T05:42:39;3.73;;;2.83;;
982;SDS011;480;48.124;11.578;2022-11-15T05:45:06;1.73;;;1.63;;
982;SDS011;480;48.124;11.578;2022-11-15T05:47:35;2.10;;;2.00;;
982;SDS011;480;48.124;11.578;2022-11-15T05:50:05;1.80;;;1.70;;
982;SDS011;480;48.124;11.578;2022-11-15T05:52:33;2.07;;;1.87;;
982;SDS011;480;48.124;11.578;2022-11-15T05:55:05;2.27;;;2.07;;
982;SDS011;480;48.124;11.578;2022-11-15T05:57:34;1.70;;;1.60;;
982;SDS011;480;48.124;11.578;2022-11-15T06:00:04;1.87;;;1.77;;
982;SDS011;480;48.124;11.578;2022-11-15T06:02:33;1.80;;;1.57;;
982;SDS011;480;48.124;11.578;2022-11-15T06:05:00;2.60;;;1.73;;
982;SDS011;480;48.124;11.578;2022-11-15T06:07:28;2.37;;;2.10;;
982;SDS011;480;48.124;11.578;2022-11-15T06:09:55;3.87;;;1.70;;
982;SDS011;480;48.124;11.578;2022-11-15T06:12:22;3.60;;;2.73;;
982;SDS011;480;48.124;11.578;2022-11-15T06:14:49;1.90;;;1.70;;
982;SDS011;480;48.124;11.578;2022-11-15T06:17:18;3.00;;;2.23;;
982;SDS011;480;48.124;11.578;2022-11-15T06:19:45;2.13;;;1.93;;
982;SDS011;480;48.124;11.578;2022-11-15T06:22:12;6.33;;;2.70;;
982;SDS011;480;48.124;11.578;2022-11-15T06:24:39;1.80;;;1.70;;
982;SDS011;480;48.124;11.578;2022-11-15T06:27:06;2.97;;;2.33;;
982;SDS011;480;48.124;11.578;2022-11-15T06:29:33;5.30;;;2.60;;
982;SDS011;480;48.124;11.578;2022-11-15T06:32:00;3.67;;;2.20;;
982;SDS011;480;48.124;11.578;2022-11-15T06:34:28;1.80;;;1.70;;
982;SDS011;480;48.124;11.578;2022-11-15T06:36:55;2.57;;;2.37;;
982;SDS011;480;48.124;11.578;2022-11-15T06:39:23;2.60;;;2.17;;
982;SDS011;480;48.124;11.578;2022-11-15T06:41:50;3.10;;;2.77;;
982;SDS011;480;48.124;11.578;2022-11-15T06:44:17;2.50;;;2.30;;
982;SDS011;480;48.124;11.578;2022-11-15T06:46:44;1.80;;;1.60;;
982;SDS011;480;48.124;11.578;2022-11-15T06:49:11;3.60;;;3.30;;
982;SDS011;480;48.124;11.578;2022-11-15T06:51:40;2.70;;;2.60;;
982;SDS011;480;48.124;11.578;2022-11-15T06:54:06;2.03;;;1.90;;
982;SDS011;480;48.124;11.578;2022-11-15T06:56:33;2.37;;;2.00;;
982;SDS011;480;48.124;11.578;2022-11-15T06:59:00;1.63;;;1.53;;
982;SDS011;480;48.124;11.578;2022-11-15T07:01:28;3.37;;;2.00;;
982;SDS011;480;48.124;11.578;2022-11-15T07:03:55;2.30;;;1.97;;
982;SDS011;480;48.124;11.578;2022-11-15T07:06:22;2.47;;;2.27;;
982;SDS011;480;48.124;11.578;2022-11-15T07:08:50;3.30;;;3.00;;
982;SDS011;480;48.124;11.578;2022-11-15T07:11:17;3.37;;;2.70;;
982;SDS011;480;48.124;11.578;2022-11-15T07:13:44;3.80;;;2.93;;
982;SDS011;480;48.124;11.578;2022-11-15T07:16:11;2.50;;;2.23;;
982;SDS011;480;48.124;11.578;2022-11-15T07:18:39;2.70;;;2.50;;
982;SDS011;480;48.124;11.578;2022-11-15T07:21:07;3.20;;;3.00;;
982;SDS011;480;48.124;11.578;2022-11-15T07:23:36;2.50;;;2.30;;
982;SDS011;480;48.124;11.578;2022-11-15T07:26:05;2.00;;;1.90;;
982;SDS011;480;48.124;11.578;2022-11-15T07:28:33;2.80;;;2.67;;
982;SDS011;480;48.124;11.578;2022-11-15T07:31:01;2.97;;;2.70;;
982;SDS011;480;48.124;11.578;2022-11-15T07:33:29;2.60;;;2.30;;
982;SDS011;480;48.124;11.578;2022-11-15T07:35:58;2.50;;;2.30;;
982;SDS011;480;48.124;11.578;2022-11-15T07:38:27;6.33;;;3.40;;
982;SDS011;480;48.124;11.578;2022-11-15T07:40:58;2.90;;;2.70;;
982;SDS011;480;48.124;11.578;2022-11-15T07:43:27;2.80;;;2.60;;
982;SDS011;480;48.124;11.578;2022-11-15T07:45:54;3.13;;;2.70;;
982;SDS011;480;48.124;11.578;2022-11-15T07:48:22;2.13;;;1.90;;
982;SDS011;480;48.124;11.578;2022-11-15T07:50:49;2.47;;;2.27;;
982;SDS011;480;48.124;11.578;2022-11-15T07:53:18;2.80;;;2.60;;
982;SDS011;480;48.124;11.578;2022-11-15T07:55:45;4.27;;;3.17;;
982;SDS011;480;48.124;11.578;2022-11-15T07:58:12;4.53;;;2.30;;
982;SDS011;480;48.124;11.578;2022-11-15T08:00:41;4.90;;;3.30;;
982;SDS011;480;48.124;11.578;2022-11-15T08:03:08;2.80;;;2.60;;
982;SDS011;480;48.124;11.578;2022-11-15T08:05:37;4.47;;;3.07;;
982;SDS011;480;48.124;11.578;2022-11-15T08:08:05;6.30;;;4.43;;
982;SDS011;480;48.124;11.578;2022-11-15T08:10:33;3.87;;;3.40;;
982;SDS011;480;48.124;11.578;2022-11-15T08:13:02;3.60;;;3.30;;
982;SDS011;480;48.124;11.578;2022-11-15T08:15:31;3.83;;;3.40;;
982;SDS011;480;48.124;11.578;2022-11-15T08:18:01;4.43;;;2.83;;
982;SDS011;480;48.124;11.578;2022-11-15T08:20:30;3.40;;;3.03;;
982;SDS011;480;48.124;11.578;2022-11-15T08:22:59;3.50;;;3.20;;
982;SDS011;480;48.124;11.578;2022-11-15T08:25:28;3.93;;;2.43;;
982;SDS011;480;48.124;11.578;2022-11-15T08:27:58;4.70;;;3.10;;
982;SDS011;480;48.124;11.578;2022-11-15T08:30:26;3.93;;;3.57;;
982;SDS011;480;48.124;11.578;2022-11-15T08:32:55;3.40;;;2.50;;
982;SDS011;480;48.124;11.578;2022-11-15T08:35:25;2.80;;;2.60;;
982;SDS011;480;48.124;11.578;2022-11-15T08:37:52;3.37;;;2.83;;
982;SDS011;480;48.124;11.578;2022-11-15T08:40:19;3.97;;;2.47;;
982;SDS011;480;48.124;11.578;2022-11-15T08:42:48;5.10;;;2.67;;
982;SDS011;480;48.124;11.578;2022-11-15T08:45:15;3.50;;;3.17;;
982;SDS011;480;48.124;11.578;2022-11-15T08:47:42;4.80;;;3.37;;
982;SDS011;480;48.124;11.578;2022-11-15T08:50:10;4.17;;;2.80;;
982;SDS011;480;48.124;11.578;2022-11-15T08:52:38;5.67;;;3.00;;
982;SDS011;480;48.124;11.578;2022-11-15T08:55:05;5.23;;;3.17;;
982;SDS011;480;48.124;11.578;2022-11-15T08:57:33;3.00;;;2.27;;
982;SDS011;480;48.124;11.578;2022-11-15T09:00:00;3.77;;;3.20;;
982;SDS011;480;48.124;11.578;2022-11-15T09:02:27;4.00;;;3.30;;
982;SDS011;480;48.124;11.578;2022-11-15T09:04:54;2.23;;;2.03;;
982;SDS011;480;48.124;11.578;2022-11-15T09:07:21;2.50;;;2.30;;
982;SDS011;480;48.124;11.578;2022-11-15T09:09:50;7.00;;;2.40;;
982;SDS011;480;48.124;11.578;2022-11-15T09:12:17;3.50;;;2.70;;
982;SDS011;480;48.124;11.578;2022-11-15T09:14:44;2.57;;;2.37;;
982;SDS011;480;48.124;11.578;2022-11-15T09:17:11;3.03;;;2.50;;
982;SDS011;480;48.124;11.578;2022-11-15T09:19:38;2.20;;;2.00;;
982;SDS011;480;48.124;11.578;2022-11-15T09:22:05;2.83;;;2.60;;
982;SDS011;480;48.124;11.578;2022-11-15T09:24:33;2.73;;;2.53;;
982;SDS011;480;48.124;11.578;2022-11-15T09:27:02;3.60;;;3.30;;
982;SDS011;480;48.124;11.578;2022-11-15T09:29:29;4.67;;;4.10;;
982;SDS011;480;48.124;11.578;2022-11-15T09:31:56;3.10;;;2.87;;
982;SDS011;480;48.124;11.578;2022-11-15T09:34:23;3.57;;;2.80;;
982;SDS011;480;48.124;11.578;2022-11-15T09:36:50;2.93;;;2.73;;
982;SDS011;480;48.124;11.578;2022-11-15T09:39:17;2.93;;;2.73;;
982;SDS011;480;48.124;11.578;2022-11-15T09:41:58;9.87;;;3.57;;
982;SDS011;480;48.124;11.578;2022-11-15T09:44:43;4.00;;;2.70;;
982;SDS011;480;48.124;11.578;2022-11-15T09:50:28;9.53;;;3.63;;
982;SDS011;480;48.124;11.578;2022-11-15T09:52:58;3.47;;;2.90;;
982;SDS011;480;48.124;11.578;2022-11-15T09:55:29;5.93;;;4.13;;
982;SDS011;480;48.124;11.578;2022-11-15T09:58:10;6.33;;;2.93;;
982;SDS011;480;48.124;11.578;2022-11-15T10:00:46;3.80;;;3.20;;
982;SDS011;480;48.124;11.578;2022-11-15T10:03:18;3.00;;;2.70;;
982;SDS011;480;48.124;11.578;2022-11-15T10:05:54;2.90;;;2.70;;
982;SDS011;480;48.124;11.578;2022-11-15T10:08:31;3.13;;;2.83;;
982;SDS011;480;48.124;11.578;2022-11-15T10:11:11;3.10;;;1.97;;
982;SDS011;480;48.124;11.578;2022-11-15T10:13:46;2.67;;;2.47;;
982;SDS011;480;48.124;11.578;2022-11-15T10:16:28;3.53;;;2.17;;
982;SDS011;480;48.124;11.578;2022-11-15T10:19:16;3.40;;;3.10;;
982;SDS011;480;48.124;11.578;2022-11-15T10:21:55;2.50;;;2.30;;
982;SDS011;480;48.124;11.578;2022-11-15T10:24:39;3.13;;;1.50;;
982;SDS011;480;48.124;11.578;2022-11-15T10:27:09;3.83;;;1.80;;
982;SDS011;480;48.124;11.578;2022-11-15T10:29:44;1.87;;;1.77;;
982;SDS011;480;48.124;11.578;2022-11-15T10:32:12;2.90;;;2.13;;
982;SDS011;480;48.124;11.578;2022-11-15T10:34:41;2.50;;;2.23;;
982;SDS011;480;48.124;11.578;2022-11-15T10:37:08;4.40;;;2.30;;
982;SDS011;480;48.124;11.578;2022-11-15T10:39:35;3.63;;;2.30;;
982;SDS011;480;48.124;11.578;2022-11-15T10:42:15;1.67;;;1.57;;
982;SDS011;480;48.124;11.578;2022-11-15T10:44:44;1.70;;;1.57;;
982;SDS011;480;48.124;11.578;2022-11-15T10:47:25;2.03;;;1.90;;
982;SDS011;480;48.124;11.578;2022-11-15T10:49:58;4.37;;;1.70;;
982;SDS011;480;48.124;11.578;2022-11-15T10:52:27;2.60;;;1.90;;
982;SDS011;480;48.124;11.578;2022-11-15T10:54:57;1.70;;;1.53;;
982;SDS011;480;48.124;11.578;2022-11-15T10:57:29;2.40;;;2.10;;
982;SDS011;480;48.124;11.578;2022-11-15T11:00:00;2.50;;;2.30;;
982;SDS011;480;48.124;11.578;2022-11-15T11:02:31;4.90;;;2.10;;
982;SDS011;480;48.124;11.578;2022-11-15T11:05:02;8.70;;;2.47;;
982;SDS011;480;48.124;11.578;2022-11-15T11:07:31;2.30;;;2.00;;
982;SDS011;480;48.124;11.578;2022-11-15T11:10:01;2.13;;;2.00;;
982;SDS011;480;48.124;11.578;2022-11-15T11:12:30;2.43;;;1.90;;
982;SDS011;480;48.124;11.578;2022-11-15T11:15:01;5.83;;;2.40;;
982;SDS011;480;48.124;11.578;2022-11-15T11:17:42;1.93;;;1.60;;
982;SDS011;480;48.124;11.578;2022-11-15T11:20:18;3.70;;;2.17;;
982;SDS011;480;48.124;11.578;2022-11-15T11:22:56;2.43;;;1.70;;
982;SDS011;480;48.124;11.578;2022-11-15T11:25:33;1.87;;;1.77;;
982;SDS011;480;48.124;11.578;2022-11-15T11:28:09;2.60;;;2.40;;
982;SDS011;480;48.124;11.578;2022-11-15T11:30:50;3.00;;;2.73;;
982;SDS011;480;48.124;11.578;2022-11-15T11:33:26;1.63;;;1.53;;
982;SDS011;480;48.124;11.578;2022-11-15T11:35:59;3.70;;;2.27;;
982;SDS011;480;48.124;11.578;2022-11-15T11:38:41;2.57;;;1.57;;
982;SDS011;480;48.124;11.578;2022-11-15T11:41:19;2.23;;;1.60;;
982;SDS011;480;48.124;11.578;2022-11-15T11:43:56;1.80;;;1.70;;
982;SDS011;480;48.124;11.578;2022-11-15T11:46:42;1.97;;;1.63;;
982;SDS011;480;48.124;11.578;2022-11-15T11:49:15;1.93;;;1.67;;
982;SDS011;480;48.124;11.578;2022-11-15T11:51:51;2.40;;;1.93;;
982;SDS011;480;48.124;11.578;2022-11-15T11:54:22;1.63;;;1.23;;
982;SDS011;480;48.124;11.578;2022-11-15T11:57:04;2.00;;;1.80;;
982;SDS011;480;48.124;11.578;2022-11-15T11:59:50;2.23;;;2.00;;
982;SDS011;480;48.124;11.578;2022-11-15T12:02:27;1.83;;;1.73;;
982;SDS011;480;48.124;11.578;2022-11-15T12:04:58;1.93;;;1.70;;
982;SDS011;480;48.124;11.578;2022-11-15T12:07:32;2.00;;;1.90;;
982;SDS011;480;48.124;11.578;2022-11-15T12:10:03;1.87;;;1.67;;
982;SDS011;480;48.124;11.578;2022-11-15T12:12:41;1.70;;;1.50;;
982;SDS011;480;48.124;11.578;2022-11-15T12:15:15;1.83;;;1.73;;
982;SDS011;480;48.124;11.578;2022-11-15T12:17:47;1.53;;;1.43;;
982;SDS011;480;48.124;11.578;2022-11-15T12:20:16;1.50;;;1.40;;
982;SDS011;480;48.124;11.578;2022-11-15T12:22:47;1.50;;;1.37;;
982;SDS011;480;48.124;11.578;2022-11-15T12:25:21;1.47;;;1.20;;
982;SDS011;480;48.124;11.578;2022-11-15T12:27:53;3.83;;;2.07;;
982;SDS011;480;48.124;11.578;2022-11-15T12:30:23;1.73;;;1.63;;
982;SDS011;480;48.124;11.578;2022-11-15T12:32:55;1.67;;;1.50;;
982;SDS011;480;48.124;11.578;2022-11-15T12:35:26;2.10;;;1.80;;
982;SDS011;480;48.124;11.578;2022-11-15T12:37:56;2.03;;;1.87;;
982;SDS011;480;48.124;11.578;2022-11-15T12:40:25;1.73;;;1.47;;
982;SDS011;480;48.124;11.578;2022-11-15T12:42:58;1.90;;;1.80;;
982;SDS011;480;48.124;11.578;2022-11-15T12:45:28;2.00;;;1.73;;
982;SDS011;480;48.124;11.578;2022-11-15T12:50:59;1.80;;;1.50;;
982;SDS011;480;48.124;11.578;2022-11-15T12:53:27;2.10;;;1.90;;
982;SDS011;480;48.124;11.578;2022-11-15T12:56:09;1.83;;;1.73;;
982;SDS011;480;48.124;11.578;2022-11-15T12:58:51;1.93;;;1.83;;
982;SDS011;480;48.124;11.578;2022-11-15T13:04:25;2.03;;;1.50;;
982;SDS011;480;48.124;11.578;2022-11-15T13:06:56;6.33;;;2.10;;
982;SDS011;480;48.124;11.578;2022-11-15T13:18:31;2.27;;;2.07;;
982;SDS011;480;48.124;11.578;2022-11-15T13:21:18;2.50;;;1.97;;
982;SDS011;480;48.124;11.578;2022-11-15T13:24:09;1.47;;;1.30;;
982;SDS011;480;48.124;11.578;2022-11-15T13:26:38;1.70;;;1.50;;
982;SDS011;480;48.124;11.578;2022-11-15T13:29:13;3.10;;;1.60;;
982;SDS011;480;48.124;11.578;2022-11-15T13:31:43;2.40;;;2.07;;
982;SDS011;480;48.124;11.578;2022-11-15T13:34:21;1.97;;;1.77;;
982;SDS011;480;48.124;11.578;2022-11-15T13:36:52;2.87;;;2.00;;
982;SDS011;480;48.124;11.578;2022-11-15T13:39:27;1.90;;;1.70;;
982;SDS011;480;48.124;11.578;2022-11-15T13:41:57;2.00;;;1.90;;
982;SDS011;480;48.124;11.578;2022-11-15T13:44:25;1.97;;;1.80;;
982;SDS011;480;48.124;11.578;2022-11-15T13:47:00;2.80;;;2.10;;
982;SDS011;480;48.124;11.578;2022-11-15T13:49:32;2.30;;;1.63;;
982;SDS011;480;48.124;11.578;2022-11-15T13:52:00;2.50;;;2.30;;
982;SDS011;480;48.124;11.578;2022-11-15T13:54:34;2.60;;;2.33;;
982;SDS011;480;48.124;11.578;2022-11-15T13:57:11;2.10;;;1.90;;
982;SDS011;480;48.124;11.578;2022-11-15T13:59:44;2.83;;;1.70;;
982;SDS011;480;48.124;11.578;2022-11-15T14:02:14;2.80;;;2.10;;
982;SDS011;480;48.124;11.578;2022-11-15T14:04:48;1.83;;;1.73;;
982;SDS011;480;48.124;11.578;2022-11-15T14:07:19;2.10;;;1.90;;
982;SDS011;480;48.124;11.578;2022-11-15T14:09:49;2.00;;;1.90;;
982;SDS011;480;48.124;11.578;2022-11-15T14:12:21;2.40;;;2.20;;
982;SDS011;480;48.124;11.578;2022-11-15T14:14:51;1.90;;;1.77;;
982;SDS011;480;48.124;11.578;2022-11-15T14:17:19;2.37;;;1.83;;
982;SDS011;480;48.124;11.578;2022-11-15T14:19:48;4.10;;;2.20;;
982;SDS011;480;48.124;11.578;2022-11-15T14:22:18;2.03;;;1.83;;
982;SDS011;480;48.124;11.578;2022-11-15T14:25:03;2.13;;;1.93;;
982;SDS011;480;48.124;11.578;2022-11-15T14:27:40;1.80;;;1.70;;
982;SDS011;480;48.124;11.578;2022-11-15T14:30:12;2.10;;;2.00;;
982;SDS011;480;48.124;11.578;2022-11-15T14:32:42;3.20;;;2.00;;
982;SDS011;480;48.124;11.578;2022-11-15T14:35:12;2.50;;;2.30;;
982;SDS011;480;48.124;11.578;2022-11-15T14:37:41;1.73;;;1.60;;
982;SDS011;480;48.124;11.578;2022-11-15T14:40:13;2.10;;;1.80;;
982;SDS011;480;48.124;11.578;2022-11-15T14:42:42;3.17;;;2.30;;
982;SDS011;480;48.124;11.578;2022-11-15T14:45:11;2.80;;;2.53;;
982;SDS011;480;48.124;11.578;2022-11-15T14:47:40;3.47;;;2.50;;
982;SDS011;480;48.124;11.578;2022-11-15T14:50:11;4.80;;;3.23;;
982;SDS011;480;48.124;11.578;2022-11-15T14:52:39;2.73;;;2.27;;
982;SDS011;480;48.124;11.578;2022-11-15T14:55:14;2.80;;;2.53;;
982;SDS011;480;48.124;11.578;2022-11-15T14:57:44;3.20;;;2.90;;
982;SDS011;480;48.124;11.578;2022-11-15T15:00:12;2.70;;;2.50;;
982;SDS011;480;48.124;11.578;2022-11-15T15:02:40;3.70;;;2.60;;
982;SDS011;480;48.124;11.578;2022-11-15T15:05:12;4.10;;;2.67;;
982;SDS011;480;48.124;11.578;2022-11-15T15:07:41;5.80;;;3.17;;
982;SDS011;480;48.124;11.578;2022-11-15T15:10:09;5.50;;;2.90;;
982;SDS011;480;48.124;11.578;2022-11-15T15:12:38;3.23;;;2.33;;
982;SDS011;480;48.124;11.578;2022-11-15T15:15:05;4.20;;;2.43;;
982;SDS011;480;48.124;11.578;2022-11-15T15:17:38;5.50;;;2.30;;
982;SDS011;480;48.124;11.578;2022-11-15T15:20:05;4.70;;;2.30;;
982;SDS011;480;48.124;11.578;2022-11-15T15:22:33;2.80;;;2.13;;
982;SDS011;480;48.124;11.578;2022-11-15T15:25:00;6.77;;;2.60;;
982;SDS011;480;48.124;11.578;2022-11-15T15:27:27;2.80;;;2.60;;
982;SDS011;480;48.124;11.578;2022-11-15T15:29:55;2.40;;;2.20;;
982;SDS011;480;48.124;11.578;2022-11-15T15:32:22;3.80;;;2.60;;
982;SDS011;480;48.124;11.578;2022-11-15T15:34:49;4.40;;;2.83;;
982;SDS011;480;48.124;11.578;2022-11-15T15:37:19;3.33;;;2.57;;
982;SDS011;480;48.124;11.578;2022-11-15T15:39:50;3.60;;;2.43;;
982;SDS011;480;48.124;11.578;2022-11-15T15:42:17;4.13;;;3.73;;
982;SDS011;480;48.124;11.578;2022-11-15T15:44:45;5.03;;;4.33;;
982;SDS011;480;48.124;11.578;2022-11-15T15:47:14;4.43;;;4.03;;
982;SDS011;480;48.124;11.578;2022-11-15T15:49:43;3.93;;;3.57;;
982;SDS011;480;48.124;11.578;2022-11-15T15:52:10;6.00;;;4.43;;
982;SDS011;480;48.124;11.578;2022-11-15T15:54:37;6.40;;;4.73;;
982;SDS011;480;48.124;11.578;2022-11-15T15:57:04;6.17;;;5.03;;
982;SDS011;480;48.124;11.578;2022-11-15T15:59:32;5.10;;;4.63;;
982;SDS011;480;48.124;11.578;2022-11-15T16:01:59;8.10;;;5.50;;
982;SDS011;480;48.124;11.578;2022-11-15T16:04:27;5.93;;;4.80;;
982;SDS011;480;48.124;11.578;2022-11-15T16:06:57;4.00;;;3.60;;
982;SDS011;480;48.124;11.578;2022-11-15T16:09:25;4.63;;;4.13;;
982;SDS011;480;48.124;11.578;2022-11-15T16:12:06;5.07;;;4.10;;
982;SDS011;480;48.124;11.578;2022-11-15T16:14:33;5.60;;;5.13;;